Time;durP1;ratioP1;P1;durP2;ratioP2;P2;SDS_P1;SDS_P2;PMS_P1;PMS_P2;Temp;Humidity;BMP_temperature;BMP_pressure;BME280_temperature;BME280_humidity;BME280_pressure;Samples;Min_cycle;Max_cycle;Signal;HPM_P1;HPM_P2
2022/11/09 00:00:09;;;;;;;;;;;;;;;;;;354067;28;948;-67
2022/11/09 00:00:20;;;;;;;;;;;;;;;;;;354163;28;1003;-67
2022/11/09 00:00:30;;;;;;;;;;;;;;;;;;354139;27;805;-67
2022/11/09 00:00:40;;;;;;;;;;;;;;;;;;354139;28;764;-66
2022/11/09 00:00:51;;;;;;;;;;;;;;;;;;354207;28;1105;-67
2022/11/09 00:01:02;;;;;;;;;;;;;;;;;;354166;28;789;-67
2022/11/09 00:01:12;;;;;;;;;;;;;;;;;;353937;28;1121;-67
2022/11/09 00:01:23;;;;;;;;;;;;;;;;;;354145;27;929;-67
2022/11/09 00:01:33;;;;;;;;;;;;;;;;;;354093;28;1005;-67
2022/11/09 00:01:44;;;;;;;;;;;;;;;;;;354094;28;928;-67
2022/11/09 00:01:54;;;;;;;;;;;;;;;;;;354161;28;935;-67
2022/11/09 00:02:04;;;;;;;;;;;;;;;;;;354118;27;917;-67
2022/11/09 00:02:14;;;;;;;;;;;;;;;;;;354062;27;1035;-67
2022/11/09 00:02:24;;;;;;;;;;;;;;;;;;354149;28;913;-67
2022/11/09 00:02:34;;;;;;;;;;;;;;;;;;354096;28;1035;-67
2022/11/09 00:02:45;;;;;;;;;;;;;;;;;;354146;28;931;-67
2022/11/09 00:02:55;;;;;;;;;;;;;;;;;;354107;28;1037;-67
2022/11/09 00:03:05;;;;;;;;;;;;;;;;;;354092;28;1009;-67
2022/11/09 00:03:15;;;;;;;;;;;;;;;;;;354163;28;1007;-67
2022/11/09 00:03:25;;;;;;;;;;;;;;;;;;354124;28;1062;-67
2022/11/09 00:03:36;;;;;;;;;;;;;;;;;;354101;28;753;-66
2022/11/09 00:03:46;;;;;;;;;;;;;;;;;;354127;28;917;-67
2022/11/09 00:03:59;;;;;;;;;;;;;;;;;;354110;28;948;-67
2022/11/09 00:04:09;;;;;;;;;;;;;;;;;;354100;28;987;-67
2022/11/09 00:04:20;;;;;;;;;;;;;;;;;;354144;28;943;-67
2022/11/09 00:04:30;;;;;;;;;;;;;;;;;;354128;28;1007;-67
2022/11/09 00:04:40;;;;;;;;;;;;;;;;;;354160;28;979;-67
2022/11/09 00:04:50;;;;;;;;;;;;;;;;;;354098;28;944;-67
2022/11/09 00:05:01;;;;;;;;;;;;;;;;;;354103;28;867;-67
2022/11/09 00:05:11;;;;;;;;;;;;;;;;;;354156;28;916;-67
2022/11/09 00:05:21;;;;;;;;;;;;;;;;;;354122;28;984;-67
2022/11/09 00:05:32;;;;;;;;;;;;;;;;;;354057;28;781;-67
2022/11/09 00:05:42;;;;;;;;;;;;;;;;;;354035;28;817;-67
2022/11/09 00:05:56;;;;;;;;;;;;;;;;;;354165;28;979;-67
2022/11/09 00:06:06;;;;;;;;;;;;;;;;;;354155;28;845;-67
2022/11/09 00:06:16;;;;;;;;;;;;;;;;;;354081;28;916;-67
2022/11/09 00:06:27;;;;;;;;;;;;;;;;;;354149;28;975;-67
2022/11/09 00:06:37;;;;;;;;;;;;;;;;;;353945;27;1783;-67
2022/11/09 00:06:47;;;;;;;;;;;;;;;;;;354181;27;1600;-67
2022/11/09 00:06:58;;;;;;;;;;;;;;;;;;354156;28;968;-67
2022/11/09 00:07:08;;;;;;;;;;;;;;;;;;354115;28;1010;-67
2022/11/09 00:07:18;;;;;;;;;;;;;;;;;;354724;27;1326;-66
2022/11/09 00:07:29;;;;;;;;;;;;;;;;;;355503;27;912;-67
2022/11/09 00:07:39;;;;;;;;;;;;;;;;;;355560;27;935;-67
2022/11/09 00:07:49;;;;;;;;;;;;;;;;;;355578;27;828;-67
2022/11/09 00:07:59;;;;;;;;;;;;;;;;;;355611;27;848;-67
2022/11/09 00:08:10;;;;;;;;;;;;;;;;;;355602;27;860;-67
2022/11/09 00:08:20;;;;;;;;;;;;;;;;;;355496;27;856;-67
2022/11/09 00:08:30;;;;;;;;;;;;;;;;;;355578;27;963;-67
2022/11/09 00:08:41;;;;;;;;;;;;;;;;;;355524;27;936;-67
2022/11/09 00:08:51;;;;;;;;;;;;;;;;;;355576;27;943;-67
2022/11/09 00:09:03;;;;;;;;;;;;;;;;;;355618;27;857;-65
2022/11/09 00:09:13;;;;;;;;;;;;;;;;;;355523;27;797;-66
2022/11/09 00:09:23;;;;;;;;;;;;;;;;;;355542;27;947;-66
2022/11/09 00:09:33;;;;;;;;;;;;;;;;;;355560;27;932;-66
2022/11/09 00:09:43;;;;;;;;;;;;;;;;;;355521;27;909;-65
2022/11/09 00:09:54;;;;;;;;;;;;;;;;;;355603;27;844;-66
2022/11/09 00:10:04;;;;;;;;;;;;;;;;;;355325;27;1036;-66
2022/11/09 00:10:14;;;;;;;;;;;;;;;;;;355600;27;1007;-65
2022/11/09 00:10:24;;;;;;;;;;;;;;;;;;355474;27;956;-66
2022/11/09 00:10:35;;;;;;;;;;;;;;;;;;353939;27;2018;-66
2022/11/09 00:10:45;;;;;;;;;;;;;;;;;;354858;27;1969;-66
2022/11/09 00:11:01;;;;;;;;;;;;;;;;;;354141;27;1910;-66
2022/11/09 00:11:11;;;;;;;;;;;;;;;;;;355054;27;790;-66
2022/11/09 00:11:21;;;;;;;;;;;;;;;;;;354110;28;1008;-66
2022/11/09 00:11:32;;;;;;;;;;;;;;;;;;354148;28;1011;-66
2022/11/09 00:11:42;;;;;;;;;;;;;;;;;;354042;28;1020;-66
2022/11/09 00:11:52;;;;;;;;;;;;;;;;;;354158;28;872;-66
2022/11/09 00:12:03;;;;;;;;;;;;;;;;;;354158;28;822;-66
2022/11/09 00:12:13;;;;;;;;;;;;;;;;;;354163;28;812;-65
2022/11/09 00:12:24;;;;;;;;;;;;;;;;;;354096;28;936;-65
2022/11/09 00:12:34;;;;;;;;;;;;;;;;;;354075;28;967;-66
2022/11/09 00:12:44;;;;;;;;;;;;;;;;;;354656;27;1300;-66
2022/11/09 00:12:54;;;;;;;;;;;;;;;;;;355561;27;869;-66
2022/11/09 00:13:04;;;;;;;;;;;;;;;;;;354142;27;1196;-66
2022/11/09 00:13:15;;;;;;;;;;;;;;;;;;354059;28;1015;-66
2022/11/09 00:13:25;;;;;;;;;;;;;;;;;;354148;28;905;-66
2022/11/09 00:13:39;;;;;;;;;;;;;;;;;;354185;28;888;-66
2022/11/09 00:13:49;;;;;;;;;;;;;;;;;;353939;27;1502;-66
2022/11/09 00:13:59;;;;;;;;;;;;;;;;;;354156;28;928;-66
2022/11/09 00:14:13;;;;;;;;;;;;;;;;;;354219;28;456;-66
2022/11/09 00:14:24;;;;;;;;;;;;;;;;;;354117;28;963;-66
2022/11/09 00:14:34;;;;;;;;;;;;;;;;;;354116;28;916;-66
2022/11/09 00:14:44;;;;;;;;;;;;;;;;;;354132;28;920;-66
2022/11/09 00:14:54;;;;;;;;;;;;;;;;;;354111;28;912;-65
2022/11/09 00:15:04;;;;;;;;;;;;;;;;;;354138;28;924;-65
2022/11/09 00:15:15;;;;;;;;;;;;;;;;;;354111;28;991;-65
2022/11/09 00:15:25;;;;;;;;;;;;;;;;;;354142;28;996;-66
2022/11/09 00:15:35;;;;;;;;;;;;;;;;;;354082;28;908;-66
2022/11/09 00:15:45;;;;;;;;;;;;;;;;;;354092;28;975;-66
2022/11/09 00:15:59;;;;;;;;;;;;;;;;;;354151;28;940;-66
2022/11/09 00:16:10;;;;;;;;;;;;;;;;;;354074;28;1092;-66
2022/11/09 00:16:21;;;;;;;;;;;;;;;;;;354142;28;940;-65
2022/11/09 00:16:31;;;;;;;;;;;;;;;;;;354214;28;872;-65
2022/11/09 00:16:41;;;;;;;;;;;;;;;;;;354049;28;963;-66
2022/11/09 00:16:51;;;;;;;;;;;;;;;;;;354105;28;899;-65
2022/11/09 00:17:02;;;;;;;;;;;;;;;;;;354183;28;901;-66
2022/11/09 00:17:12;;;;;;;;;;;;;;;;;;354190;28;975;-65
2022/11/09 00:17:22;;;;;;;;;;;;;;;;;;354088;28;1092;-66
2022/11/09 00:17:32;;;;;;;;;;;;;;;;;;354174;28;845;-65
2022/11/09 00:17:43;;;;;;;;;;;;;;;;;;354133;28;1162;-65
2022/11/09 00:17:53;;;;;;;;;;;;;;;;;;354100;28;951;-66
2022/11/09 00:18:03;;;;;;;;;;;;;;;;;;354110;28;927;-66
2022/11/09 00:18:13;;;;;;;;;;;;;;;;;;354153;28;928;-66
2022/11/09 00:18:24;;;;;;;;;;;;;;;;;;352598;28;920;-66
2022/11/09 00:18:35;;;;;;;;;;;;;;;;;;352650;28;935;-66
2022/11/09 00:18:48;;;;;;;;;;;;;;;;;;352540;28;928;-66
2022/11/09 00:18:58;;;;;;;;;;;;;;;;;;352609;28;979;-65
2022/11/09 00:19:08;;;;;;;;;;;;;;;;;;352646;28;907;-66
2022/11/09 00:19:18;;;;;;;;;;;;;;;;;;352607;28;829;-66
2022/11/09 00:19:29;;;;;;;;;;;;;;;;;;352565;28;939;-66
2022/11/09 00:19:39;;;;;;;;;;;;;;;;;;352645;28;923;-65
2022/11/09 00:19:49;;;;;;;;;;;;;;;;;;352633;28;908;-66
2022/11/09 00:19:59;;;;;;;;;;;;;;;;;;352607;28;923;-65
2022/11/09 00:20:10;;;;;;;;;;;;;;;;;;352579;28;931;-66
2022/11/09 00:20:20;;;;;;;;;;;;;;;;;;353361;28;983;-65
2022/11/09 00:20:30;;;;;;;;;;;;;;;;;;354132;28;825;-65
2022/11/09 00:20:42;;;;;;;;;;;;;;;;;;354160;28;868;-66
2022/11/09 00:20:52;;;;;;;;;;;;;;;;;;354027;28;947;-66
2022/11/09 00:21:06;;;;;;;;;;;;;;;;;;354160;28;837;-65
2022/11/09 00:21:21;;;;;;;;;;;;;;;;;;354173;28;923;-66
2022/11/09 00:21:31;;;;;;;;;;;;;;;;;;354062;28;919;-66
2022/11/09 00:21:41;;;;;;;;;;;;;;;;;;354093;28;1007;-66
2022/11/09 00:21:51;;;;;;;;;;;;;;;;;;354145;28;864;-65
2022/11/09 00:22:02;;;;;;;;;;;;;;;;;;354180;28;907;-65
2022/11/09 00:22:12;;;;;;;;;;;;;;;;;;353904;28;1363;-66
2022/11/09 00:22:22;;;;;;;;;;;;;;;;;;354099;28;734;-66
2022/11/09 00:22:32;;;;;;;;;;;;;;;;;;354102;28;987;-66
2022/11/09 00:22:45;;;;;;;;;;;;;;;;;;354081;28;995;-65
2022/11/09 00:22:56;;;;;;;;;;;;;;;;;;354030;28;943;-65
2022/11/09 00:23:06;;;;;;;;;;;;;;;;;;354129;28;956;-65
2022/11/09 00:23:16;;;;;;;;;;;;;;;;;;354054;28;1003;-66
2022/11/09 00:23:26;;;;;;;;;;;;;;;;;;354158;28;904;-66
2022/11/09 00:23:37;;;;;;;;;;;;;;;;;;354104;28;908;-66
2022/11/09 00:23:47;;;;;;;;;;;;;;;;;;354136;28;970;-66
2022/11/09 00:23:58;;;;;;;;;;;;;;;;;;354080;28;978;-66
2022/11/09 00:24:09;;;;;;;;;;;;;;;;;;354156;28;860;-66
2022/11/09 00:24:19;;;;;;;;;;;;;;;;;;354080;28;852;-66
2022/11/09 00:24:29;;;;;;;;;;;;;;;;;;354143;28;928;-66
2022/11/09 00:24:39;;;;;;;;;;;;;;;;;;354103;28;963;-66
2022/11/09 00:24:50;;;;;;;;;;;;;;;;;;354168;28;963;-65
2022/11/09 00:25:00;;;;;;;;;;;;;;;;;;354028;28;837;-66
2022/11/09 00:25:10;;;;;;;;;;;;;;;;;;354121;28;912;-66
2022/11/09 00:25:20;;;;;;;;;;;;;;;;;;354162;28;784;-65
2022/11/09 00:25:30;;;;;;;;;;;;;;;;;;353442;27;2015;-65
2022/11/09 00:25:41;;;;;;;;;;;;;;;;;;354492;27;931;-66
2022/11/09 00:25:51;;;;;;;;;;;;;;;;;;355539;27;999;-65
2022/11/09 00:26:02;;;;;;;;;;;;;;;;;;354330;27;2088;-66
2022/11/09 00:26:13;;;;;;;;;;;;;;;;;;354474;27;829;-65
2022/11/09 00:26:24;;;;;;;;;;;;;;;;;;355582;27;979;-66
2022/11/09 00:26:34;;;;;;;;;;;;;;;;;;355514;27;998;-66
2022/11/09 00:26:44;;;;;;;;;;;;;;;;;;355564;27;844;-66
2022/11/09 00:26:54;;;;;;;;;;;;;;;;;;355510;27;986;-66
2022/11/09 00:27:04;;;;;;;;;;;;;;;;;;355498;27;849;-66
2022/11/09 00:27:15;;;;;;;;;;;;;;;;;;355507;27;924;-66
2022/11/09 00:27:25;;;;;;;;;;;;;;;;;;355583;27;852;-66
2022/11/09 00:27:35;;;;;;;;;;;;;;;;;;355547;27;954;-66
2022/11/09 00:27:45;;;;;;;;;;;;;;;;;;354303;27;1427;-66
2022/11/09 00:27:55;;;;;;;;;;;;;;;;;;354103;28;924;-65
2022/11/09 00:28:05;;;;;;;;;;;;;;;;;;354159;28;960;-65
2022/11/09 00:28:16;;;;;;;;;;;;;;;;;;354142;28;896;-65
2022/11/09 00:28:26;;;;;;;;;;;;;;;;;;354147;28;916;-65
2022/11/09 00:28:36;;;;;;;;;;;;;;;;;;354101;28;845;-66
2022/11/09 00:28:47;;;;;;;;;;;;;;;;;;354151;28;928;-66
2022/11/09 00:28:57;;;;;;;;;;;;;;;;;;353594;27;2061;-65
2022/11/09 00:29:07;;;;;;;;;;;;;;;;;;354107;27;1575;-65
2022/11/09 00:29:17;;;;;;;;;;;;;;;;;;354508;27;1285;-66
2022/11/09 00:29:28;;;;;;;;;;;;;;;;;;355564;27;943;-65
2022/11/09 00:29:38;;;;;;;;;;;;;;;;;;355517;27;1006;-65
2022/11/09 00:29:48;;;;;;;;;;;;;;;;;;355585;27;950;-65
2022/11/09 00:29:58;;;;;;;;;;;;;;;;;;355507;27;1019;-66
2022/11/09 00:30:12;;;;;;;;;;;;;;;;;;355522;27;785;-66
2022/11/09 00:30:22;;;;;;;;;;;;;;;;;;355601;27;780;-65
2022/11/09 00:30:32;;;;;;;;;;;;;;;;;;355531;27;900;-65
2022/11/09 00:30:43;;;;;;;;;;;;;;;;;;355587;27;911;-65
2022/11/09 00:30:59;;;;;;;;;;;;;;;;;;355459;27;1976;-65
2022/11/09 00:31:11;;;;;;;;;;;;;;;;;;355473;27;987;-65
2022/11/09 00:31:22;;;;;;;;;;;;;;;;;;355543;27;841;-65
2022/11/09 00:31:32;;;;;;;;;;;;;;;;;;355585;27;805;-65
2022/11/09 00:31:42;;;;;;;;;;;;;;;;;;355494;27;966;-65
2022/11/09 00:31:52;;;;;;;;;;;;;;;;;;355550;27;781;-65
2022/11/09 00:32:02;;;;;;;;;;;;;;;;;;355599;27;963;-65
2022/11/09 00:32:13;;;;;;;;;;;;;;;;;;355533;27;975;-65
2022/11/09 00:32:23;;;;;;;;;;;;;;;;;;355544;27;854;-65
2022/11/09 00:32:33;;;;;;;;;;;;;;;;;;355570;27;983;-66
2022/11/09 00:32:43;;;;;;;;;;;;;;;;;;355551;27;911;-66
2022/11/09 00:32:54;;;;;;;;;;;;;;;;;;355563;27;852;-66
2022/11/09 00:33:04;;;;;;;;;;;;;;;;;;355507;27;916;-65
2022/11/09 00:33:14;;;;;;;;;;;;;;;;;;355524;27;872;-65
2022/11/09 00:33:25;;;;;;;;;;;;;;;;;;355495;27;825;-65
2022/11/09 00:33:35;;;;;;;;;;;;;;;;;;355535;27;999;-65
2022/11/09 00:33:47;;;;;;;;;;;;;;;;;;355617;27;914;-65
2022/11/09 00:33:57;;;;;;;;;;;;;;;;;;354083;27;1237;-65
2022/11/09 00:34:07;;;;;;;;;;;;;;;;;;354096;28;935;-65
2022/11/09 00:34:18;;;;;;;;;;;;;;;;;;354148;28;940;-65
2022/11/09 00:34:28;;;;;;;;;;;;;;;;;;354128;28;936;-65
2022/11/09 00:34:38;;;;;;;;;;;;;;;;;;354084;28;928;-66
2022/11/09 00:34:48;;;;;;;;;;;;;;;;;;354184;28;769;-66
2022/11/09 00:34:58;;;;;;;;;;;;;;;;;;354163;28;845;-65
2022/11/09 00:35:09;;;;;;;;;;;;;;;;;;354106;28;1018;-65
2022/11/09 00:35:19;;;;;;;;;;;;;;;;;;354098;28;896;-66
2022/11/09 00:35:29;;;;;;;;;;;;;;;;;;354068;28;904;-66
2022/11/09 00:35:39;;;;;;;;;;;;;;;;;;354151;28;916;-65
2022/11/09 00:35:49;;;;;;;;;;;;;;;;;;353789;27;1349;-65
2022/11/09 00:36:07;;;;;;;;;;;;;;;;;;354487;27;1146;-65
2022/11/09 00:36:17;;;;;;;;;;;;;;;;;;354091;28;983;-65
2022/11/09 00:36:28;;;;;;;;;;;;;;;;;;354141;28;908;-65
2022/11/09 00:36:38;;;;;;;;;;;;;;;;;;354091;27;1047;-65
2022/11/09 00:36:49;;;;;;;;;;;;;;;;;;354201;28;806;-66
2022/11/09 00:36:59;;;;;;;;;;;;;;;;;;353881;27;1664;-65
2022/11/09 00:37:09;;;;;;;;;;;;;;;;;;353923;27;1528;-66
2022/11/09 00:37:19;;;;;;;;;;;;;;;;;;354350;27;952;-66
2022/11/09 00:37:30;;;;;;;;;;;;;;;;;;354342;27;932;-65
2022/11/09 00:37:40;;;;;;;;;;;;;;;;;;354362;27;888;-65
2022/11/09 00:37:50;;;;;;;;;;;;;;;;;;354358;27;916;-66
2022/11/09 00:38:00;;;;;;;;;;;;;;;;;;354406;27;801;-65
2022/11/09 00:38:10;;;;;;;;;;;;;;;;;;354426;27;1007;-66
2022/11/09 00:38:21;;;;;;;;;;;;;;;;;;354389;27;936;-66
2022/11/09 00:38:31;;;;;;;;;;;;;;;;;;354406;27;931;-65
2022/11/09 00:38:41;;;;;;;;;;;;;;;;;;354351;27;824;-65
2022/11/09 00:38:53;;;;;;;;;;;;;;;;;;354430;27;944;-66
2022/11/09 00:39:03;;;;;;;;;;;;;;;;;;353882;27;2101;-65
2022/11/09 00:39:13;;;;;;;;;;;;;;;;;;354318;27;1068;-65
2022/11/09 00:39:23;;;;;;;;;;;;;;;;;;354435;27;860;-66
2022/11/09 00:39:34;;;;;;;;;;;;;;;;;;354299;27;932;-65
2022/11/09 00:39:44;;;;;;;;;;;;;;;;;;354416;27;948;-65
2022/11/09 00:39:54;;;;;;;;;;;;;;;;;;354422;27;820;-66
2022/11/09 00:40:04;;;;;;;;;;;;;;;;;;353814;27;2105;-66
2022/11/09 00:40:15;;;;;;;;;;;;;;;;;;354342;27;849;-65
2022/11/09 00:40:25;;;;;;;;;;;;;;;;;;354304;27;967;-65
2022/11/09 00:40:35;;;;;;;;;;;;;;;;;;353924;27;2061;-65
2022/11/09 00:40:45;;;;;;;;;;;;;;;;;;355249;27;872;-65
2022/11/09 00:40:58;;;;;;;;;;;;;;;;;;355820;27;875;-65
2022/11/09 00:41:10;;;;;;;;;;;;;;;;;;355291;27;1615;-66
2022/11/09 00:41:20;;;;;;;;;;;;;;;;;;354322;27;901;-65
2022/11/09 00:41:30;;;;;;;;;;;;;;;;;;354382;27;1089;-65
2022/11/09 00:41:41;;;;;;;;;;;;;;;;;;354303;27;1083;-65
2022/11/09 00:41:51;;;;;;;;;;;;;;;;;;354399;27;931;-65
2022/11/09 00:42:01;;;;;;;;;;;;;;;;;;353961;27;1963;-65
2022/11/09 00:42:11;;;;;;;;;;;;;;;;;;354335;27;853;-65
2022/11/09 00:42:21;;;;;;;;;;;;;;;;;;354369;27;971;-65
2022/11/09 00:42:31;;;;;;;;;;;;;;;;;;354432;27;910;-66
2022/11/09 00:42:42;;;;;;;;;;;;;;;;;;354407;27;893;-66
2022/11/09 00:42:52;;;;;;;;;;;;;;;;;;354407;27;790;-65
2022/11/09 00:43:02;;;;;;;;;;;;;;;;;;354342;27;975;-65
2022/11/09 00:43:13;;;;;;;;;;;;;;;;;;354411;27;987;-65
2022/11/09 00:43:23;;;;;;;;;;;;;;;;;;354393;27;888;-66
2022/11/09 00:43:34;;;;;;;;;;;;;;;;;;354362;27;975;-66
2022/11/09 00:43:44;;;;;;;;;;;;;;;;;;354251;27;916;-66
2022/11/09 00:43:54;;;;;;;;;;;;;;;;;;354543;27;1347;-66
2022/11/09 00:44:05;;;;;;;;;;;;;;;;;;355794;27;968;-65
2022/11/09 00:44:15;;;;;;;;;;;;;;;;;;355824;27;1006;-65
2022/11/09 00:44:25;;;;;;;;;;;;;;;;;;355743;27;916;-66
2022/11/09 00:44:35;;;;;;;;;;;;;;;;;;355825;27;900;-65
2022/11/09 00:44:45;;;;;;;;;;;;;;;;;;355813;27;955;-66
2022/11/09 00:44:56;;;;;;;;;;;;;;;;;;355831;27;986;-66
2022/11/09 00:45:06;;;;;;;;;;;;;;;;;;355855;27;919;-65
2022/11/09 00:45:16;;;;;;;;;;;;;;;;;;355797;27;851;-65
2022/11/09 00:45:27;;;;;;;;;;;;;;;;;;355784;27;919;-65
2022/11/09 00:45:37;;;;;;;;;;;;;;;;;;355771;27;991;-65
2022/11/09 00:45:47;;;;;;;;;;;;;;;;;;354963;27;1479;-65
2022/11/09 00:45:58;;;;;;;;;;;;;;;;;;355758;27;824;-66
2022/11/09 00:46:08;;;;;;;;;;;;;;;;;;355841;27;903;-66
2022/11/09 00:46:19;;;;;;;;;;;;;;;;;;355838;27;887;-66
2022/11/09 00:46:29;;;;;;;;;;;;;;;;;;355831;27;928;-65
2022/11/09 00:46:39;;;;;;;;;;;;;;;;;;355748;27;987;-65
2022/11/09 00:46:49;;;;;;;;;;;;;;;;;;355860;27;777;-65
2022/11/09 00:47:00;;;;;;;;;;;;;;;;;;355780;27;1027;-65
2022/11/09 00:47:10;;;;;;;;;;;;;;;;;;355855;27;991;-65
2022/11/09 00:47:20;;;;;;;;;;;;;;;;;;355763;27;967;-66
2022/11/09 00:47:30;;;;;;;;;;;;;;;;;;355850;27;765;-66
2022/11/09 00:47:40;;;;;;;;;;;;;;;;;;355808;27;915;-65
2022/11/09 00:47:50;;;;;;;;;;;;;;;;;;355762;27;1228;-65
2022/11/09 00:48:01;;;;;;;;;;;;;;;;;;355773;27;1011;-65
2022/11/09 00:48:11;;;;;;;;;;;;;;;;;;355799;27;935;-66
2022/11/09 00:48:21;;;;;;;;;;;;;;;;;;355849;27;971;-65
2022/11/09 00:48:32;;;;;;;;;;;;;;;;;;355762;27;1043;-66
2022/11/09 00:48:42;;;;;;;;;;;;;;;;;;355710;27;1000;-65
2022/11/09 00:48:53;;;;;;;;;;;;;;;;;;355835;27;1023;-65
2022/11/09 00:49:03;;;;;;;;;;;;;;;;;;355844;27;986;-65
2022/11/09 00:49:14;;;;;;;;;;;;;;;;;;355745;27;1015;-65
2022/11/09 00:49:24;;;;;;;;;;;;;;;;;;355826;27;904;-65
2022/11/09 00:49:34;;;;;;;;;;;;;;;;;;355771;27;975;-65
2022/11/09 00:49:44;;;;;;;;;;;;;;;;;;355806;27;829;-66
2022/11/09 00:49:55;;;;;;;;;;;;;;;;;;355786;27;924;-66
2022/11/09 00:50:06;;;;;;;;;;;;;;;;;;355742;27;936;-65
2022/11/09 00:50:16;;;;;;;;;;;;;;;;;;355764;27;958;-64
2022/11/09 00:50:26;;;;;;;;;;;;;;;;;;355770;27;940;-65
2022/11/09 00:50:36;;;;;;;;;;;;;;;;;;355789;27;883;-66
2022/11/09 00:50:54;;;;;;;;;;;;;;;;;;355764;27;935;-66
2022/11/09 00:51:04;;;;;;;;;;;;;;;;;;355806;27;963;-65
2022/11/09 00:51:14;;;;;;;;;;;;;;;;;;355788;27;883;-66
2022/11/09 00:51:24;;;;;;;;;;;;;;;;;;355771;27;970;-66
2022/11/09 00:51:35;;;;;;;;;;;;;;;;;;355741;27;968;-65
2022/11/09 00:51:45;;;;;;;;;;;;;;;;;;355797;27;940;-65
2022/11/09 00:51:55;;;;;;;;;;;;;;;;;;355760;27;967;-66
2022/11/09 00:52:05;;;;;;;;;;;;;;;;;;355741;27;908;-65
2022/11/09 00:52:15;;;;;;;;;;;;;;;;;;355815;27;931;-65
2022/11/09 00:52:26;;;;;;;;;;;;;;;;;;355726;27;947;-65
2022/11/09 00:52:36;;;;;;;;;;;;;;;;;;355813;27;837;-66
2022/11/09 00:52:47;;;;;;;;;;;;;;;;;;355783;27;986;-65
2022/11/09 00:52:57;;;;;;;;;;;;;;;;;;355749;27;900;-66
2022/11/09 00:53:07;;;;;;;;;;;;;;;;;;355841;27;927;-66
2022/11/09 00:53:18;;;;;;;;;;;;;;;;;;355793;27;990;-66
2022/11/09 00:53:29;;;;;;;;;;;;;;;;;;355759;27;880;-66
2022/11/09 00:53:39;;;;;;;;;;;;;;;;;;355770;27;927;-65
2022/11/09 00:53:53;;;;;;;;;;;;;;;;;;355819;27;852;-65
2022/11/09 00:54:03;;;;;;;;;;;;;;;;;;355785;27;892;-65
2022/11/09 00:54:13;;;;;;;;;;;;;;;;;;355750;27;1046;-65
2022/11/09 00:54:23;;;;;;;;;;;;;;;;;;355779;27;992;-65
2022/11/09 00:54:34;;;;;;;;;;;;;;;;;;355713;27;923;-65
2022/11/09 00:54:44;;;;;;;;;;;;;;;;;;355828;27;896;-64
2022/11/09 00:54:54;;;;;;;;;;;;;;;;;;355814;27;940;-65
2022/11/09 00:55:04;;;;;;;;;;;;;;;;;;355771;27;913;-66
2022/11/09 00:55:15;;;;;;;;;;;;;;;;;;355809;27;868;-65
2022/11/09 00:55:25;;;;;;;;;;;;;;;;;;355825;27;797;-65
2022/11/09 00:55:35;;;;;;;;;;;;;;;;;;354092;27;2128;-65
2022/11/09 00:55:56;;;;;;;;;;;;;;;;;;355257;27;924;-65
2022/11/09 00:56:10;;;;;;;;;;;;;;;;;;354351;27;2140;-66
2022/11/09 00:56:21;;;;;;;;;;;;;;;;;;354294;27;948;-65
2022/11/09 00:56:31;;;;;;;;;;;;;;;;;;354268;27;1039;-66
2022/11/09 00:56:41;;;;;;;;;;;;;;;;;;354334;27;940;-65
2022/11/09 00:56:51;;;;;;;;;;;;;;;;;;354396;27;980;-65
2022/11/09 00:57:02;;;;;;;;;;;;;;;;;;354316;27;1215;-65
2022/11/09 00:57:12;;;;;;;;;;;;;;;;;;354421;27;794;-65
2022/11/09 00:57:23;;;;;;;;;;;;;;;;;;354394;27;885;-65
2022/11/09 00:57:33;;;;;;;;;;;;;;;;;;354363;27;860;-65
2022/11/09 00:57:43;;;;;;;;;;;;;;;;;;354319;27;1031;-65
2022/11/09 00:57:53;;;;;;;;;;;;;;;;;;354388;27;975;-65
2022/11/09 00:58:03;;;;;;;;;;;;;;;;;;354387;27;1019;-65
2022/11/09 00:58:14;;;;;;;;;;;;;;;;;;354371;27;1027;-65
2022/11/09 00:58:25;;;;;;;;;;;;;;;;;;354314;27;773;-65
2022/11/09 00:58:37;;;;;;;;;;;;;;;;;;354367;27;983;-65
2022/11/09 00:58:51;;;;;;;;;;;;;;;;;;354365;27;944;-65
2022/11/09 00:59:01;;;;;;;;;;;;;;;;;;353892;27;2061;-65
2022/11/09 00:59:11;;;;;;;;;;;;;;;;;;354691;27;912;-65
2022/11/09 00:59:21;;;;;;;;;;;;;;;;;;355784;27;998;-65
2022/11/09 00:59:31;;;;;;;;;;;;;;;;;;355783;27;1139;-65
2022/11/09 00:59:42;;;;;;;;;;;;;;;;;;355791;27;932;-65
2022/11/09 00:59:53;;;;;;;;;;;;;;;;;;355834;27;840;-65
2022/11/09 01:00:03;;;;;;;;;;;;;;;;;;355773;27;919;-65
2022/11/09 01:00:15;;;;;;;;;;;;;;;;;;355804;27;916;-65
2022/11/09 01:00:25;;;;;;;;;;;;;;;;;;355757;27;920;-66
2022/11/09 01:00:36;;;;;;;;;;;;;;;;;;354200;27;1351;-65
2022/11/09 01:00:46;;;;;;;;;;;;;;;;;;354043;27;1345;-65
2022/11/09 01:00:57;;;;;;;;;;;;;;;;;;355754;27;862;-66
2022/11/09 01:01:12;;;;;;;;;;;;;;;;;;355831;27;967;-65
2022/11/09 01:01:23;;;;;;;;;;;;;;;;;;355784;27;924;-65
2022/11/09 01:01:33;;;;;;;;;;;;;;;;;;355845;27;975;-65
2022/11/09 01:01:43;;;;;;;;;;;;;;;;;;355736;27;912;-65
2022/11/09 01:01:53;;;;;;;;;;;;;;;;;;355817;27;793;-65
2022/11/09 01:02:03;;;;;;;;;;;;;;;;;;355801;27;994;-65
2022/11/09 01:02:14;;;;;;;;;;;;;;;;;;355822;27;864;-65
2022/11/09 01:02:24;;;;;;;;;;;;;;;;;;355768;27;928;-65
2022/11/09 01:02:34;;;;;;;;;;;;;;;;;;355742;27;967;-65
2022/11/09 01:02:44;;;;;;;;;;;;;;;;;;355769;27;837;-65
2022/11/09 01:02:55;;;;;;;;;;;;;;;;;;355726;27;992;-65
2022/11/09 01:03:05;;;;;;;;;;;;;;;;;;354053;27;2096;-65
2022/11/09 01:03:15;;;;;;;;;;;;;;;;;;354383;27;754;-65
2022/11/09 01:03:25;;;;;;;;;;;;;;;;;;354362;27;916;-65
2022/11/09 01:03:36;;;;;;;;;;;;;;;;;;354331;27;955;-65
2022/11/09 01:03:46;;;;;;;;;;;;;;;;;;354369;27;983;-65
2022/11/09 01:03:57;;;;;;;;;;;;;;;;;;354370;27;857;-65
2022/11/09 01:04:07;;;;;;;;;;;;;;;;;;354314;27;1369;-65
2022/11/09 01:04:17;;;;;;;;;;;;;;;;;;354359;27;912;-65
2022/11/09 01:04:27;;;;;;;;;;;;;;;;;;353968;27;2072;-65
2022/11/09 01:04:37;;;;;;;;;;;;;;;;;;354934;27;1730;-65
2022/11/09 01:04:48;;;;;;;;;;;;;;;;;;355815;27;912;-65
2022/11/09 01:04:58;;;;;;;;;;;;;;;;;;355798;27;904;-65
2022/11/09 01:05:09;;;;;;;;;;;;;;;;;;355145;27;1816;-65
2022/11/09 01:05:19;;;;;;;;;;;;;;;;;;355800;27;908;-65
2022/11/09 01:05:29;;;;;;;;;;;;;;;;;;355789;27;974;-65
2022/11/09 01:05:39;;;;;;;;;;;;;;;;;;355750;27;1807;-65
2022/11/09 01:05:50;;;;;;;;;;;;;;;;;;355823;27;1795;-65
2022/11/09 01:06:00;;;;;;;;;;;;;;;;;;355792;27;928;-65
2022/11/09 01:06:14;;;;;;;;;;;;;;;;;;355783;27;1098;-65
2022/11/09 01:06:25;;;;;;;;;;;;;;;;;;355829;27;928;-65
2022/11/09 01:06:35;;;;;;;;;;;;;;;;;;355740;27;923;-65
2022/11/09 01:06:45;;;;;;;;;;;;;;;;;;355825;27;1044;-65
2022/11/09 01:06:56;;;;;;;;;;;;;;;;;;355806;27;916;-66
2022/11/09 01:07:06;;;;;;;;;;;;;;;;;;355775;27;802;-66
2022/11/09 01:07:17;;;;;;;;;;;;;;;;;;355815;27;777;-65
2022/11/09 01:07:27;;;;;;;;;;;;;;;;;;355807;27;979;-66
2022/11/09 01:07:37;;;;;;;;;;;;;;;;;;355697;27;996;-65
2022/11/09 01:07:48;;;;;;;;;;;;;;;;;;355788;27;955;-65
2022/11/09 01:07:58;;;;;;;;;;;;;;;;;;355820;27;928;-65
2022/11/09 01:08:08;;;;;;;;;;;;;;;;;;354730;27;1516;-65
2022/11/09 01:08:19;;;;;;;;;;;;;;;;;;355585;27;940;-65
2022/11/09 01:08:29;;;;;;;;;;;;;;;;;;355781;27;971;-65
2022/11/09 01:08:39;;;;;;;;;;;;;;;;;;355777;27;904;-65
2022/11/09 01:08:49;;;;;;;;;;;;;;;;;;355677;27;967;-65
2022/11/09 01:09:00;;;;;;;;;;;;;;;;;;355770;27;947;-65
2022/11/09 01:09:10;;;;;;;;;;;;;;;;;;355813;27;860;-65
2022/11/09 01:09:20;;;;;;;;;;;;;;;;;;355817;27;999;-65
2022/11/09 01:09:31;;;;;;;;;;;;;;;;;;355807;27;912;-65
2022/11/09 01:09:41;;;;;;;;;;;;;;;;;;355744;27;900;-65
2022/11/09 01:09:51;;;;;;;;;;;;;;;;;;355761;27;970;-65
2022/11/09 01:10:02;;;;;;;;;;;;;;;;;;355811;27;848;-65
2022/11/09 01:10:12;;;;;;;;;;;;;;;;;;355799;27;1007;-65
2022/11/09 01:10:22;;;;;;;;;;;;;;;;;;355739;27;915;-65
2022/11/09 01:10:33;;;;;;;;;;;;;;;;;;354301;27;2077;-65
2022/11/09 01:10:45;;;;;;;;;;;;;;;;;;354881;27;1179;-65
2022/11/09 01:10:55;;;;;;;;;;;;;;;;;;354255;27;1914;-64
2022/11/09 01:11:06;;;;;;;;;;;;;;;;;;353907;27;2109;-65
2022/11/09 01:11:17;;;;;;;;;;;;;;;;;;355291;27;904;-65
2022/11/09 01:11:27;;;;;;;;;;;;;;;;;;355755;27;1152;-65
2022/11/09 01:11:37;;;;;;;;;;;;;;;;;;355733;27;1008;-65
2022/11/09 01:11:47;;;;;;;;;;;;;;;;;;355745;27;900;-66
2022/11/09 01:11:58;;;;;;;;;;;;;;;;;;355743;27;916;-65
2022/11/09 01:12:08;;;;;;;;;;;;;;;;;;355769;27;849;-65
2022/11/09 01:12:18;;;;;;;;;;;;;;;;;;355739;27;936;-65
2022/11/09 01:12:28;;;;;;;;;;;;;;;;;;355742;27;920;-65
2022/11/09 01:12:38;;;;;;;;;;;;;;;;;;355790;27;908;-65
2022/11/09 01:12:48;;;;;;;;;;;;;;;;;;354448;27;1193;-64
2022/11/09 01:12:59;;;;;;;;;;;;;;;;;;354713;27;1225;-65
2022/11/09 01:13:10;;;;;;;;;;;;;;;;;;355786;27;1022;-65
2022/11/09 01:13:20;;;;;;;;;;;;;;;;;;355739;27;1003;-66
2022/11/09 01:13:31;;;;;;;;;;;;;;;;;;355830;27;852;-65
2022/11/09 01:13:41;;;;;;;;;;;;;;;;;;355787;27;1002;-65
2022/11/09 01:13:52;;;;;;;;;;;;;;;;;;354791;27;1296;-65
2022/11/09 01:14:02;;;;;;;;;;;;;;;;;;354369;27;888;-65
2022/11/09 01:14:12;;;;;;;;;;;;;;;;;;354327;27;909;-65
2022/11/09 01:14:22;;;;;;;;;;;;;;;;;;354356;27;963;-65
2022/11/09 01:14:33;;;;;;;;;;;;;;;;;;354368;27;852;-65
2022/11/09 01:14:43;;;;;;;;;;;;;;;;;;354362;27;916;-65
2022/11/09 01:14:53;;;;;;;;;;;;;;;;;;354308;27;920;-65
2022/11/09 01:15:04;;;;;;;;;;;;;;;;;;354233;27;964;-65
2022/11/09 01:15:14;;;;;;;;;;;;;;;;;;354340;27;859;-65
2022/11/09 01:15:24;;;;;;;;;;;;;;;;;;354290;27;1063;-65
2022/11/09 01:15:39;;;;;;;;;;;;;;;;;;354366;27;924;-65